Time;durP1;ratioP1;P1;durP2;ratioP2;P2;SDS_P1;SDS_P2;PMS_P1;PMS_P2;Temp;Humidity;BMP_temperature;BMP_pressure;BME280_temperature;BME280_humidity;BME280_pressure;Samples;Min_cycle;Max_cycle;Signal;HPM_P1;HPM_P2
2021/10/13 05:30:57;;;;;;;65.78;41.75;;;;;;;8.37;100.00;99521.66;1763065;79;21591;-33
2021/10/13 05:33:24;;;;;;;61.55;41.68;;;;;;;8.36;100.00;99519.06;1780390;78;21545;-37
2021/10/13 05:35:50;;;;;;;56.30;38.38;;;;;;;8.36;100.00;99519.06;1778276;78;21708;-37
2021/10/13 05:38:17;;;;;;;58.98;41.08;;;;;;;8.33;100.00;99523.80;1766298;79;20961;-38
2021/10/13 05:40:48;;;;;;;58.60;39.73;;;;;;;8.32;100.00;99522.07;1789768;78;21639;-33
2021/10/13 05:43:52;;;;;;;60.50;40.73;;;;;;;8.31;100.00;99516.88;1778316;78;21056;-33
2021/10/13 05:46:24;;;;;;;67.53;40.48;;;;;;;8.30;100.00;99525.12;1780582;79;21025;-33
2021/10/13 05:48:51;;;;;;;58.95;38.42;;;;;;;8.29;100.00;99527.28;1783945;79;21629;-37
2021/10/13 05:51:18;;;;;;;62.85;41.45;;;;;;;8.27;100.00;99524.69;1761949;79;21063;-33
2021/10/13 05:53:45;;;;;;;55.92;38.33;;;;;;;8.27;100.00;99527.73;1761762;80;21137;-33
2021/10/13 05:56:23;;;;;;;53.85;38.02;;;;;;;8.26;100.00;99532.52;1756045;79;21039;-38
2021/10/13 05:59:05;;;;;;;59.30;38.48;;;;;;;8.26;100.00;99531.22;1760380;79;21813;-38
2021/10/13 06:01:32;;;;;;;53.58;37.25;;;;;;;8.27;100.00;99532.94;1779775;78;21058;-34
2021/10/13 06:03:59;;;;;;;60.15;40.00;;;;;;;8.26;100.00;99529.47;1774968;79;21024;-38
2021/10/13 06:06:26;;;;;;;59.88;39.30;;;;;;;8.26;100.00;99530.77;1771386;78;21039;-37
2021/10/13 06:09:00;;;;;;;57.48;38.23;;;;;;;8.28;100.00;99524.25;1773793;79;21723;-37
2021/10/13 06:11:33;;;;;;;55.83;38.53;;;;;;;8.27;100.00;99522.52;1775339;78;21021;-38
2021/10/13 06:14:00;;;;;;;54.93;37.35;;;;;;;8.27;100.00;99514.70;1765137;77;21009;-34
2021/10/13 06:16:33;;;;;;;59.58;38.80;;;;;;;8.27;100.00;99516.00;1773416;79;21069;-38
2021/10/13 06:19:00;;;;;;;48.70;35.28;;;;;;;8.25;100.00;99515.16;1754384;80;21017;-33
2021/10/13 06:21:29;;;;;;;54.67;35.98;;;;;;;8.26;100.00;99520.34;1777807;78;21599;-33
2021/10/13 06:24:05;;;;;;;54.05;38.42;;;;;;;8.26;100.00;99517.74;1738860;79;21099;-37
2021/10/13 06:26:41;;;;;;;56.85;38.95;;;;;;;8.27;100.00;99514.70;1755975;79;21020;-35
2021/10/13 06:29:15;;;;;;;53.48;35.80;;;;;;;8.26;100.00;99522.95;1774919;78;20985;-33
2021/10/13 06:32:02;;;;;;;54.83;35.17;;;;;;;8.26;100.00;99518.19;1734583;80;21043;-34
2021/10/13 06:34:35;;;;;;;51.92;37.13;;;;;;;8.26;100.00;99531.22;1774583;78;21082;-37
2021/10/13 06:37:03;;;;;;;55.75;38.25;;;;;;;8.27;100.00;99529.03;1782664;78;21413;-39
2021/10/13 06:39:30;;;;;;;63.90;39.67;;;;;;;8.27;100.00;99542.06;1777280;78;21098;-38
2021/10/13 06:41:58;;;;;;;51.10;35.55;;;;;;;8.28;100.00;99543.80;1785792;78;20977;-37
2021/10/13 06:44:25;;;;;;;60.10;38.73;;;;;;;8.27;100.00;99547.27;1777887;78;21085;-38
2021/10/13 06:46:54;;;;;;;63.70;39.42;;;;;;;8.29;100.00;99550.73;1786656;78;21647;-33
2021/10/13 06:49:22;;;;;;;51.90;35.30;;;;;;;8.31;100.00;99551.62;1757406;79;21025;-33
2021/10/13 06:51:49;;;;;;;56.73;38.67;;;;;;;8.32;100.00;99547.27;1755239;79;21637;-40
2021/10/13 06:54:17;;;;;;;55.17;37.88;;;;;;;8.32;100.00;99543.36;1771576;78;21010;-36
2021/10/13 06:56:44;;;;;;;54.65;37.58;;;;;;;8.31;100.00;99542.50;1762992;79;21036;-32
2021/10/13 06:59:11;;;;;;;58.98;39.45;;;;;;;8.32;100.00;99546.83;1774128;78;21587;-37
2021/10/13 07:01:38;;;;;;;52.73;36.48;;;;;;;8.33;100.00;99542.05;1774335;78;21508;-32
2021/10/13 07:04:05;;;;;;;58.33;40.85;;;;;;;8.34;100.00;99535.95;1775076;79;21738;-38
2021/10/13 07:06:32;;;;;;;57.55;37.45;;;;;;;8.34;100.00;99530.74;1777402;79;21610;-32
2021/10/13 07:09:03;;;;;;;64.37;41.60;;;;;;;8.34;100.00;99525.53;1779458;78;21032;-34
2021/10/13 07:11:38;;;;;;;54.50;39.03;;;;;;;8.35;100.00;99527.29;1744362;79;21076;-33
2021/10/13 07:14:09;;;;;;;58.92;38.70;;;;;;;8.35;100.00;99523.38;1784462;78;21647;-32
2021/10/13 07:16:37;;;;;;;61.02;38.35;;;;;;;8.37;100.00;99517.75;1768769;77;21041;-32
2021/10/13 07:19:05;;;;;;;59.70;39.88;;;;;;;8.38;100.00;99501.23;1768791;79;21056;-39
2021/10/13 07:21:32;;;;;;;52.05;37.40;;;;;;;8.39;100.00;99506.00;1775224;77;21961;-31
2021/10/13 07:23:59;;;;;;;56.33;40.10;;;;;;;8.41;100.00;99509.05;1777037;78;21635;-32
2021/10/13 07:26:26;;;;;;;58.35;39.98;;;;;;;8.42;100.00;99511.22;1782593;78;20977;-37
2021/10/13 07:28:53;;;;;;;62.17;41.10;;;;;;;8.43;100.00;99516.86;1785467;77;21011;-37
2021/10/13 07:31:20;;;;;;;69.80;43.60;;;;;;;8.43;100.00;99516.42;1783890;78;21060;-37
2021/10/13 07:33:47;;;;;;;65.47;42.95;;;;;;;8.45;100.00;99516.41;1778274;78;21027;-37
2021/10/13 07:36:14;;;;;;;78.22;50.10;;;;;;;8.46;100.00;99521.61;1777927;79;21541;-33
2021/10/13 07:38:42;;;;;;;61.45;42.48;;;;;;;8.49;100.00;99527.27;1775755;79;21033;-32
2021/10/13 07:41:09;;;;;;;59.10;40.45;;;;;;;8.49;100.00;99532.48;1747524;80;20979;-37
2021/10/13 07:43:36;;;;;;;57.95;39.58;;;;;;;8.50;100.00;99535.51;1749017;79;21042;-38
2021/10/13 07:46:03;;;;;;;57.53;37.78;;;;;;;8.51;100.00;99535.50;1723801;79;20977;-32
2021/10/13 07:48:30;;;;;;;50.52;36.60;;;;;;;8.52;100.00;99528.13;1771697;78;21049;-38
2021/10/13 07:50:57;;;;;;;56.77;42.43;;;;;;;8.54;100.00;99528.12;1781050;78;21456;-37
2021/10/13 07:53:24;;;;;;;59.30;39.05;;;;;;;8.55;100.00;99528.98;1778409;78;21072;-37
2021/10/13 07:55:51;;;;;;;54.67;40.45;;;;;;;8.56;100.00;99530.71;1769392;79;21066;-33
2021/10/13 07:58:18;;;;;;;49.60;36.50;;;;;;;8.57;100.00;99518.09;1781365;77;21013;-31
2021/10/13 08:00:48;;;;;;;46.25;35.13;;;;;;;8.57;100.00;99520.70;1780665;77;21695;-36
2021/10/13 08:03:14;;;;;;;54.60;38.88;;;;;;;8.57;100.00;99517.66;1773398;79;21028;-37
2021/10/13 08:05:42;;;;;;;46.25;35.23;;;;;;;8.58;100.00;99507.69;1777503;78;21572;-38
2021/10/13 08:08:10;;;;;;;49.63;37.80;;;;;;;8.59;100.00;99506.80;1775105;78;20987;-33
2021/10/13 08:10:55;;;;;;;45.08;33.95;;;;;;;8.61;100.00;99505.48;1772296;78;21017;-35
2021/10/13 08:14:00;;;;;;;47.23;32.42;;;;;;;8.63;100.00;99505.03;1776042;78;21066;-33
2021/10/13 08:16:41;;;;;;;43.33;32.70;;;;;;;8.65;100.00;99505.91;1694656;81;21373;-38
2021/10/13 08:19:47;;;;;;;50.60;34.35;;;;;;;8.65;100.00;99505.47;1740966;79;21963;-37
2021/10/13 08:22:48;;;;;;;42.83;30.85;;;;;;;8.65;100.00;99502.00;1760076;79;21011;-32
2021/10/13 08:26:00;;;;;;;46.42;32.23;;;;;;;8.64;100.00;99485.49;1748449;79;21095;-33
2021/10/13 08:29:59;;;;;;;41.73;30.43;;;;;;;8.64;100.00;99483.29;1777559;78;21037;-38
2021/10/13 08:36:37;;;;;;;38.28;28.92;;;;;;;8.65;100.00;99479.84;1771307;79;21049;-34
2021/10/13 08:39:12;;;;;;;36.55;26.20;;;;;;;8.64;100.00;99471.16;1774730;78;22105;-33
2021/10/13 08:41:52;;;;;;;35.50;26.00;;;;;;;8.64;100.00;99460.72;1776357;79;21028;-33
2021/10/13 08:44:19;;;;;;;30.92;23.77;;;;;;;8.64;100.00;99450.70;1783275;78;21071;-32
2021/10/13 08:46:47;;;;;;;31.75;23.38;;;;;;;8.66;100.00;99450.27;1790055;78;21021;-34
2021/10/13 08:49:14;;;;;;;29.90;22.20;;;;;;;8.68;100.00;99467.63;1774035;78;21054;-37
2021/10/13 08:51:42;;;;;;;26.95;21.77;;;;;;;8.68;100.00;99471.54;1736722;78;21028;-37
2021/10/13 08:54:19;;;;;;;25.80;19.82;;;;;;;8.69;100.00;99468.48;1764496;80;21468;-33
2021/10/13 08:56:47;;;;;;;24.77;18.90;;;;;;;8.69;100.00;99464.58;1730066;80;21495;-36
2021/10/13 08:59:42;;;;;;;21.93;18.02;;;;;;;8.69;100.00;99475.87;1778870;79;21033;-32
2021/10/13 09:02:09;;;;;;;22.22;17.52;;;;;;;8.69;100.00;99478.48;1702421;81;21056;-33
2021/10/13 09:04:37;;;;;;;21.37;17.17;;;;;;;8.70;100.00;99476.77;1690785;82;21084;-33
2021/10/13 09:07:06;;;;;;;20.10;15.72;;;;;;;8.70;100.00;99476.77;1702223;82;21339;-33
2021/10/13 09:09:34;;;;;;;21.45;16.27;;;;;;;8.71;100.00;99475.45;1697238;81;21040;-36
2021/10/13 09:12:01;;;;;;;18.48;14.10;;;;;;;8.72;100.00;99483.70;1686469;82;21726;-33
2021/10/13 09:14:29;;;;;;;18.75;14.70;;;;;;;8.73;100.00;99481.95;1701098;81;21659;-38
2021/10/13 09:17:06;;;;;;;18.00;15.18;;;;;;;8.72;100.00;99470.66;1714826;81;21111;-37
2021/10/13 09:19:51;;;;;;;20.35;15.13;;;;;;;8.73;100.00;99469.78;1700431;81;21016;-38
2021/10/13 09:22:24;;;;;;;14.10;12.58;;;;;;;8.75;100.00;99471.06;1695493;81;20993;-38
2021/10/13 09:25:04;;;;;;;14.73;11.95;;;;;;;8.76;100.00;99466.30;1696622;82;21607;-33
2021/10/13 09:34:22;;;;;;;11.70;10.23;;;;;;;8.79;100.00;99446.27;1710323;81;21826;-33
2021/10/13 09:37:01;;;;;;;11.73;9.93;;;;;;;8.80;100.00;99434.95;1711431;81;21583;-32
2021/10/13 09:39:30;;;;;;;10.25;9.15;;;;;;;8.82;100.00;99436.27;1739818;79;21078;-38
2021/10/13 09:42:01;;;;;;;10.08;9.08;;;;;;;8.83;100.00;99428.00;1789642;78;21088;-37
2021/10/13 09:44:31;;;;;;;12.35;8.75;;;;;;;8.84;100.00;99426.68;1776984;78;21498;-33
2021/10/13 09:47:02;;;;;;;11.03;9.25;;;;;;;8.85;100.00;99426.23;1764290;79;21011;-37
2021/10/13 09:49:41;;;;;;;10.53;9.43;;;;;;;8.87;100.00;99421.45;1788358;78;21040;-38
2021/10/13 09:52:19;;;;;;;12.07;8.68;;;;;;;8.88;100.00;99416.66;1755675;79;21029;-37
2021/10/13 09:54:47;;;;;;;11.73;8.05;;;;;;;8.89;100.00;99407.09;1711806;81;21053;-32
2021/10/13 09:57:23;;;;;;;9.78;8.53;;;;;;;8.90;100.00;99413.59;1779943;78;21327;-37
2021/10/13 10:00:23;;;;;;;9.40;7.97;;;;;;;8.92;100.00;99418.79;1778515;78;21626;-32
2021/10/13 10:02:59;;;;;;;9.28;7.75;;;;;;;8.93;100.00;99403.56;1719009;79;21377;-38
2021/10/13 10:05:36;;;;;;;10.93;7.80;;;;;;;8.95;100.00;99411.82;1750205;79;21012;-38
2021/10/13 10:08:10;;;;;;;7.33;6.62;;;;;;;8.96;100.00;99407.02;1775398;78;21472;-33
2021/10/13 10:11:17;;;;;;;12.18;7.47;;;;;;;8.99;100.00;99401.80;1771558;78;21073;-37
2021/10/13 10:14:28;;;;;;;8.33;6.65;;;;;;;9.01;100.00;99401.78;1781208;78;21041;-33
2021/10/13 10:17:49;;;;;;;7.33;6.40;;;;;;;9.02;100.00;99405.67;1769666;78;21583;-33
2021/10/13 10:21:29;;;;;;;6.80;5.90;;;;;;;9.04;100.00;99408.26;1759264;79;21055;-37
2021/10/13 10:24:39;;;;;;;8.05;6.50;;;;;;;9.05;100.00;99412.63;1754267;79;21080;-36
2021/10/13 10:28:12;;;;;;;7.03;5.83;;;;;;;9.05;100.00;99416.54;1778924;78;21460;-31
2021/10/13 10:30:39;;;;;;;5.80;5.28;;;;;;;9.05;100.00;99421.77;1800912;77;20917;-33
2021/10/13 10:33:29;;;;;;;7.85;5.58;;;;;;;9.04;100.00;99425.22;1790698;77;21523;-37
2021/10/13 10:35:58;;;;;;;7.12;5.25;;;;;;;9.04;100.00;99435.66;1758967;79;21059;-33
2021/10/13 10:38:48;;;;;;;8.18;7.03;;;;;;;9.06;100.00;99441.75;1737621;78;21528;-31
2021/10/13 10:41:24;;;;;;;8.40;6.80;;;;;;;9.08;100.00;99441.73;1779872;77;21856;-33
2021/10/13 10:44:29;;;;;;;7.47;6.70;;;;;;;9.09;100.00;99456.50;1751666;77;21304;-32
2021/10/13 10:47:07;;;;;;;8.75;7.58;;;;;;;9.09;100.00;99464.33;1700584;82;21064;-32
2021/10/13 10:49:55;;;;;;;10.72;9.05;;;;;;;9.10;100.00;99475.19;1688916;81;21075;-32
2021/10/13 10:52:26;;;;;;;11.22;8.98;;;;;;;9.10;100.00;99478.66;1705706;82;21430;-32
2021/10/13 10:55:07;;;;;;;11.60;10.25;;;;;;;9.09;100.00;99482.59;1690629;82;21103;-32
2021/10/13 10:57:48;;;;;;;15.48;12.50;;;;;;;9.06;100.00;99484.80;1693394;82;21516;-33
2021/10/13 11:00:27;;;;;;;18.45;14.07;;;;;;;9.03;100.00;99479.15;1696799;82;21143;-39
2021/10/13 11:03:24;;;;;;;15.93;13.05;;;;;;;9.00;100.00;99482.23;1690899;82;21305;-36
2021/10/13 11:05:54;;;;;;;19.02;13.90;;;;;;;8.94;100.00;99477.92;1701468;82;21130;-37
2021/10/13 11:08:21;;;;;;;20.15;15.05;;;;;;;8.88;100.00;99481.88;1665869;82;21629;-39
2021/10/13 11:10:53;;;;;;;18.57;14.30;;;;;;;8.84;100.00;99477.55;1684866;82;21110;-38
2021/10/13 11:13:24;;;;;;;21.60;17.45;;;;;;;8.82;100.00;99467.57;1641789;84;21055;-34
2021/10/13 11:15:53;;;;;;;22.85;17.70;;;;;;;8.80;100.00;99468.00;1698283;82;21082;-39
2021/10/13 11:18:20;;;;;;;23.55;17.55;;;;;;;8.75;100.00;99460.19;1697781;83;21422;-39
2021/10/13 11:20:48;;;;;;;22.70;18.20;;;;;;;8.73;100.00;99461.95;1690335;83;21020;-35
2021/10/13 11:23:18;;;;;;;27.77;18.50;;;;;;;8.69;100.00;99451.09;1728665;78;21016;-37
2021/10/13 11:25:44;;;;;;;24.35;18.73;;;;;;;8.67;100.00;99447.65;1780008;79;21598;-38
2021/10/13 11:28:13;;;;;;;22.30;17.87;;;;;;;8.65;100.00;99447.23;1789417;78;21084;-37
2021/10/13 11:30:45;;;;;;;23.50;19.55;;;;;;;8.63;100.00;99439.84;1776183;78;20976;-38
2021/10/13 11:33:18;;;;;;;22.95;18.90;;;;;;;8.61;100.00;99435.09;1781145;77;21003;-33
2021/10/13 11:35:52;;;;;;;25.88;19.98;;;;;;;8.60;100.00;99432.92;1775073;79;21047;-34
2021/10/13 11:38:20;;;;;;;27.15;21.12;;;;;;;8.57;100.00;99421.19;1746430;79;21111;-38
2021/10/13 11:40:53;;;;;;;26.12;20.80;;;;;;;8.55;100.00;99416.43;1746097;79;20993;-39
2021/10/13 11:43:28;;;;;;;28.32;22.10;;;;;;;8.56;100.00;99412.94;1741314;80;20981;-33
2021/10/13 11:46:03;;;;;;;24.95;20.02;;;;;;;8.55;100.00;99410.36;1746674;79;21470;-34
2021/10/13 11:48:36;;;;;;;28.38;24.00;;;;;;;8.52;100.00;99414.72;1785876;78;21086;-39
2021/10/13 11:51:05;;;;;;;;;;;;;;;8.52;100.00;99416.44;1779807;79;21124;-38
2021/10/13 11:53:50;;;;;;;31.65;23.35;;;;;;;8.51;100.00;99421.22;1762344;79;20395;-39
2021/10/13 11:56:19;;;;;;;33.60;25.65;;;;;;;8.49;100.00;99419.94;1730754;80;20977;-38
2021/10/13 11:58:51;;;;;;;31.60;25.48;;;;;;;8.48;100.00;99416.05;1708092;79;21067;-33
2021/10/13 12:01:23;;;;;;;31.93;24.80;;;;;;;8.46;100.00;99393.88;1759925;79;21032;-39
2021/10/13 12:03:50;;;;;;;31.07;24.37;;;;;;;8.46;100.00;99393.88;1747779;78;21445;-39
2021/10/13 12:06:16;;;;;;;29.45;23.38;;;;;;;8.46;100.00;99393.01;1785970;78;20984;-39
2021/10/13 12:08:43;;;;;;;28.47;22.80;;;;;;;8.45;100.00;99397.80;1790143;77;21029;-39
2021/10/13 12:11:18;;;;;;;29.77;22.60;;;;;;;8.43;100.00;99399.12;1792574;77;20956;-39
2021/10/13 12:13:47;;;;;;;29.95;22.10;;;;;;;8.43;100.00;99400.86;1762836;79;21925;-39
2021/10/13 12:16:22;;;;;;;30.05;23.42;;;;;;;8.43;100.00;99402.17;1791228;78;21033;-34
2021/10/13 12:18:54;;;;;;;29.35;22.27;;;;;;;8.42;100.00;99398.70;1778462;78;21056;-35
2021/10/13 12:21:30;;;;;;;24.55;21.23;;;;;;;8.42;100.00;99400.44;1770356;79;21081;-34
2021/10/13 12:24:09;;;;;;;30.72;23.45;;;;;;;8.42;100.00;99393.48;1790722;78;21078;-34
2021/10/13 12:26:45;;;;;;;30.70;23.47;;;;;;;8.43;100.00;99389.13;1758284;78;20999;-40
2021/10/13 12:29:15;;;;;;;31.02;23.90;;;;;;;8.44;100.00;99402.15;1798509;77;21108;-34
2021/10/13 12:31:43;;;;;;;31.25;23.83;;;;;;;8.45;100.00;99405.62;1761350;80;21533;-34
2021/10/13 12:34:15;;;;;;;29.12;23.22;;;;;;;8.46;100.00;99404.73;1729966;80;21539;-34
2021/10/13 12:36:53;;;;;;;29.42;24.00;;;;;;;8.46;100.00;99406.91;1707682;83;20988;-34
2021/10/13 12:39:28;;;;;;;30.68;23.60;;;;;;;8.47;100.00;99401.28;1704036;83;21043;-37
2021/10/13 12:42:08;;;;;;;29.55;24.12;;;;;;;8.46;100.00;99406.91;1729151;82;20965;-37
2021/10/13 12:44:35;;;;;;;30.55;23.35;;;;;;;8.44;100.00;99403.45;1818974;78;21519;-38
2021/10/13 12:47:17;;;;;;;32.20;24.60;;;;;;;8.43;100.00;99411.29;1805498;78;21026;-38
2021/10/13 12:49:46;;;;;;;30.15;24.18;;;;;;;8.42;100.00;99411.73;1761092;81;21016;-38
2021/10/13 12:52:21;;;;;;;30.12;23.85;;;;;;;8.39;100.00;99406.52;1771400;80;21580;-37
2021/10/13 12:54:55;;;;;;;29.60;23.27;;;;;;;8.37;100.00;99415.23;1775731;80;21092;-38
2021/10/13 12:57:22;;;;;;;30.95;24.00;;;;;;;8.35;100.00;99424.34;1790506;79;21031;-36
2021/10/13 12:59:49;;;;;;;29.90;24.10;;;;;;;8.33;100.00;99436.92;1805673;77;21546;-37
2021/10/13 13:02:16;;;;;;;37.28;25.35;;;;;;;8.32;100.00;99436.06;1802408;78;21035;-38
2021/10/13 13:04:44;;;;;;;31.02;23.40;;;;;;;8.32;100.00;99439.11;1778555;79;21056;-37
2021/10/13 13:07:12;;;;;;;31.77;23.57;;;;;;;8.31;100.00;99443.45;1800538;78;21027;-38
2021/10/13 13:09:40;;;;;;;32.50;24.18;;;;;;;8.29;100.00;99434.76;1774787;79;21031;-38
2021/10/13 13:12:07;;;;;;;35.40;26.35;;;;;;;8.29;100.00;99436.06;1793259;79;20982;-37
2021/10/13 13:14:35;;;;;;;33.58;24.70;;;;;;;8.26;100.00;99425.67;1787301;79;21003;-37
2021/10/13 13:17:04;;;;;;;39.48;26.57;;;;;;;8.24;100.00;99437.41;1790628;79;21005;-37
2021/10/13 13:19:31;;;;;;;32.95;23.98;;;;;;;8.23;100.00;99429.58;1793327;77;21106;-36
2021/10/13 13:21:58;;;;;;;35.98;25.23;;;;;;;8.21;100.00;99428.73;1765180;80;20977;-37
2021/10/13 13:24:25;;;;;;;30.85;23.32;;;;;;;8.19;100.00;99436.56;1799758;77;21103;-37
2021/10/13 13:26:52;;;;;;;36.30;24.80;;;;;;;8.18;100.00;99447.86;1778663;80;21598;-37
2021/10/13 13:29:18;;;;;;;32.40;23.32;;;;;;;8.17;100.00;99434.81;1796182;78;21048;-38
2021/10/13 13:31:46;;;;;;;32.13;24.25;;;;;;;8.16;100.00;99434.39;1800973;77;21608;-41
2021/10/13 13:34:13;;;;;;;31.95;23.32;;;;;;;8.14;100.00;99430.94;1784240;78;21127;-38
2021/10/13 13:36:43;;;;;;;31.73;22.20;;;;;;;8.12;100.00;99427.05;1783878;79;21004;-33
2021/10/13 13:39:10;;;;;;;34.55;25.23;;;;;;;8.12;100.00;99420.97;1788146;77;21142;-38
2021/10/13 13:41:37;;;;;;;29.92;23.60;;;;;;;8.11;100.00;99425.28;1756341;81;21031;-32
2021/10/13 13:44:06;;;;;;;33.45;24.35;;;;;;;8.12;100.00;99416.63;1781166;78;21575;-32
2021/10/13 13:46:35;;;;;;;32.08;23.22;;;;;;;8.12;100.00;99426.18;1778958;80;21584;-32
